Ms Folla 2 — LLPD — position and weather

sailwx.info

Track history (hours):
 
Tides and Currents Weather Stations Pressure Air Temp Water Temp Dewpoint Dewpoint Depression Visibility Wind Speed Wind Dir Waves Ship Positions

Ms Folla 2

Last reported at 2016-Sep-28 08:33 UTC. Time now 2016-Sep-28 12:00 UTC.
Position N 67°01' E 013°49'.

Length 52 m; draft 5.5 m.

Type: Ship. MMSI: 258253000.

Date/timePositionNaut miles runAvg speedWind from/ knotsBaromVisibWave heightAir tempDewpointWater temp
2016-Sep-28 08:33N 67°01' E 013°49'7 1.4
2016-Sep-28 03:34N 66°58' E 013°33'26 3.2
2016-Sep-27 19:32N 67°24' E 013°29'  
2016-Sep-25 07:03N 69°21' E 018°05'8 3.0
2016-Sep-25 04:33N 69°14' E 017°59'141 4.3
2016-Sep-23 19:33N 67°18' E 014°24'0 0.0
2016-Sep-23 17:33N 67°18' E 014°24'9 8.5
2016-Sep-23 16:33N 67°12' E 014°08'1211.5
2016-Sep-23 15:32N 67°03' E 013°49'51 8.6
2016-Sep-23 09:34N 66°30' E 012°07'17 5.8
2016-Sep-23 06:33N 66°23' E 012°46'17 7.5
2016-Sep-23 04:17N 66°06' E 012°43'4410.5
2016-Sep-23 00:10N 65°24' E 012°08'711.2
2016-Sep-22 23:33N 65°18' E 012°00'3210.7
2016-Sep-22 20:33N 64°52' E 011°17'9 0.4
2016-Sep-21 19:33N 64°43' E 011°18'9 2.9
2016-Sep-21 16:33N 64°52' E 011°15'91 6.5
2016-Sep-21 02:32N 66°15' E 012°39'63 7.0
2016-Sep-20 17:33N 67°14' E 013°42'22 7.3
2016-Sep-20 14:33N 67°35' E 013°55'105 4.2
2016-Sep-19 13:12N 68°56' E 016°59'810.7
2016-Sep-19 12:25N 69°01' E 017°17'910.4
2016-Sep-19 11:33N 69°07' E 017°36'  
Track history (hours):
 
Tides and Currents Weather Stations Pressure Air Temp Water Temp Dewpoint Dewpoint Depression Visibility Wind Speed Wind Dir Waves Ship Positions

Ms Folla 2

Last reported at 2016-Sep-28 08:33 UTC. Time now 2016-Sep-28 12:00 UTC.
Position N 67°01' E 013°49'.

Length 52 m; draft 5.5 m.

Type: Ship. MMSI: 258253000.

Date/timePositionNaut miles runAvg speedWind from/ knotsBaromVisibWave heightAir tempDewpointWater temp
2016-Sep-28 08:33N 67°01' E 013°49'7 1.4
2016-Sep-28 03:34N 66°58' E 013°33'26 3.2
2016-Sep-27 19:32N 67°24' E 013°29'  
2016-Sep-25 07:03N 69°21' E 018°05'8 3.0
2016-Sep-25 04:33N 69°14' E 017°59'141 4.3
2016-Sep-23 19:33N 67°18' E 014°24'0 0.0
2016-Sep-23 17:33N 67°18' E 014°24'9 8.5
2016-Sep-23 16:33N 67°12' E 014°08'1211.5
2016-Sep-23 15:32N 67°03' E 013°49'51 8.6
2016-Sep-23 09:34N 66°30' E 012°07'17 5.8
2016-Sep-23 06:33N 66°23' E 012°46'17 7.5
2016-Sep-23 04:17N 66°06' E 012°43'4410.5
2016-Sep-23 00:10N 65°24' E 012°08'711.2
2016-Sep-22 23:33N 65°18' E 012°00'3210.7
2016-Sep-22 20:33N 64°52' E 011°17'9 0.4
2016-Sep-21 19:33N 64°43' E 011°18'9 2.9
2016-Sep-21 16:33N 64°52' E 011°15'91 6.5
2016-Sep-21 02:32N 66°15' E 012°39'63 7.0
2016-Sep-20 17:33N 67°14' E 013°42'22 7.3
2016-Sep-20 14:33N 67°35' E 013°55'105 4.2
2016-Sep-19 13:12N 68°56' E 016°59'810.7
2016-Sep-19 12:25N 69°01' E 017°17'910.4
2016-Sep-19 11:33N 69°07' E 017°36'  

Dump ship's entire track history